sensor_id;sensor_type;location;lat;lon;timestamp;temperature;humidity
67358;HTU21D;54240;51.096;5.878;2022-08-01T00:01:41;19.09;118.99
67358;HTU21D;54240;51.096;5.878;2022-08-01T00:04:07;19.14;118.99
67358;HTU21D;54240;51.096;5.878;2022-08-01T00:06:33;19.12;118.99
67358;HTU21D;54240;51.096;5.878;2022-08-01T00:08:59;19.07;118.99
67358;HTU21D;54240;51.096;5.878;2022-08-01T00:11:25;19.21;118.99
67358;HTU21D;54240;51.096;5.878;2022-08-01T00:13:51;19.31;118.99
67358;HTU21D;54240;51.096;5.878;2022-08-01T00:16:17;19.38;118.99
67358;HTU21D;54240;51.096;5.878;2022-08-01T00:18:43;19.45;118.99
67358;HTU21D;54240;51.096;5.878;2022-08-01T00:21:09;19.47;118.99
67358;HTU21D;54240;51.096;5.878;2022-08-01T00:23:35;19.48;118.99
67358;HTU21D;54240;51.096;5.878;2022-08-01T00:26:01;19.47;118.99
67358;HTU21D;54240;51.096;5.878;2022-08-01T00:28:27;19.47;118.99
67358;HTU21D;54240;51.096;5.878;2022-08-01T00:30:53;19.46;118.99
67358;HTU21D;54240;51.096;5.878;2022-08-01T00:33:18;19.53;118.99
67358;HTU21D;54240;51.096;5.878;2022-08-01T00:35:44;19.51;118.99
67358;HTU21D;54240;51.096;5.878;2022-08-01T00:38:10;19.52;118.99
67358;HTU21D;54240;51.096;5.878;2022-08-01T00:40:36;19.56;118.99
67358;HTU21D;54240;51.096;5.878;2022-08-01T00:43:02;19.55;118.99
67358;HTU21D;54240;51.096;5.878;2022-08-01T00:45:28;19.65;118.99
67358;HTU21D;54240;51.096;5.878;2022-08-01T00:47:54;19.68;118.99
67358;HTU21D;54240;51.096;5.878;2022-08-01T00:50:20;19.70;118.99
67358;HTU21D;54240;51.096;5.878;2022-08-01T00:52:46;19.71;118.99
67358;HTU21D;54240;51.096;5.878;2022-08-01T00:55:12;19.77;118.99
67358;HTU21D;54240;51.096;5.878;2022-08-01T00:57:40;19.73;118.99
67358;HTU21D;54240;51.096;5.878;2022-08-01T01:00:07;19.62;118.99
67358;HTU21D;54240;51.096;5.878;2022-08-01T01:02:33;19.76;118.99
67358;HTU21D;54240;51.096;5.878;2022-08-01T01:05:00;19.75;118.99
67358;HTU21D;54240;51.096;5.878;2022-08-01T01:07:41;19.76;118.99
67358;HTU21D;54240;51.096;5.878;2022-08-01T01:10:25;19.81;118.99
67358;HTU21D;54240;51.096;5.878;2022-08-01T01:16:07;19.89;118.99
67358;HTU21D;54240;51.096;5.878;2022-08-01T01:18:49;19.84;118.99
67358;HTU21D;54240;51.096;5.878;2022-08-01T01:32:06;20.01;118.99
67358;HTU21D;54240;51.096;5.878;2022-08-01T01:34:27;20.01;118.99
67358;HTU21D;54240;51.096;5.878;2022-08-01T01:36:54;20.06;118.99
67358;HTU21D;54240;51.096;5.878;2022-08-01T01:39:26;20.04;118.99
67358;HTU21D;54240;51.096;5.878;2022-08-01T01:41:55;20.13;118.99
67358;HTU21D;54240;51.096;5.878;2022-08-01T01:44:21;20.10;118.99
67358;HTU21D;54240;51.096;5.878;2022-08-01T01:46:49;20.05;118.99
67358;HTU21D;54240;51.096;5.878;2022-08-01T01:49:16;20.01;118.99
67358;HTU21D;54240;51.096;5.878;2022-08-01T01:51:47;20.09;118.99
67358;HTU21D;54240;51.096;5.878;2022-08-01T01:54:14;20.09;118.99
67358;HTU21D;54240;51.096;5.878;2022-08-01T01:56:41;19.94;118.99
67358;HTU21D;54240;51.096;5.878;2022-08-01T01:59:20;20.03;118.99
67358;HTU21D;54240;51.096;5.878;2022-08-01T02:01:52;20.05;118.99
67358;HTU21D;54240;51.096;5.878;2022-08-01T02:04:20;20.12;118.99
67358;HTU21D;54240;51.096;5.878;2022-08-01T02:06:49;20.16;118.99
67358;HTU21D;54240;51.096;5.878;2022-08-01T02:09:20;20.17;118.99
67358;HTU21D;54240;51.096;5.878;2022-08-01T02:11:50;20.17;118.99
67358;HTU21D;54240;51.096;5.878;2022-08-01T02:14:18;20.21;118.99
67358;HTU21D;54240;51.096;5.878;2022-08-01T02:16:48;20.21;118.99
67358;HTU21D;54240;51.096;5.878;2022-08-01T02:19:17;20.18;118.99
67358;HTU21D;54240;51.096;5.878;2022-08-01T02:21:54;20.16;118.99
67358;HTU21D;54240;51.096;5.878;2022-08-01T02:30:05;20.14;118.99
67358;HTU21D;54240;51.096;5.878;2022-08-01T02:35:07;20.18;118.99
67358;HTU21D;54240;51.096;5.878;2022-08-01T02:37:38;20.20;118.99
67358;HTU21D;54240;51.096;5.878;2022-08-01T02:40:05;20.17;118.99
67358;HTU21D;54240;51.096;5.878;2022-08-01T02:42:34;20.19;118.99
67358;HTU21D;54240;51.096;5.878;2022-08-01T02:45:04;20.26;118.99
67358;HTU21D;54240;51.096;5.878;2022-08-01T02:47:37;20.22;118.99
67358;HTU21D;54240;51.096;5.878;2022-08-01T02:50:05;20.24;118.99
67358;HTU21D;54240;51.096;5.878;2022-08-01T02:52:36;20.27;118.99
67358;HTU21D;54240;51.096;5.878;2022-08-01T02:55:04;20.28;118.99
67358;HTU21D;54240;51.096;5.878;2022-08-01T02:57:33;20.27;118.99
67358;HTU21D;54240;51.096;5.878;2022-08-01T02:59:59;20.24;118.99
67358;HTU21D;54240;51.096;5.878;2022-08-01T03:02:29;20.25;118.99
67358;HTU21D;54240;51.096;5.878;2022-08-01T03:04:57;20.24;118.99
67358;HTU21D;54240;51.096;5.878;2022-08-01T03:07:25;20.28;118.99
67358;HTU21D;54240;51.096;5.878;2022-08-01T03:09:52;20.20;118.99
67358;HTU21D;54240;51.096;5.878;2022-08-01T03:12:23;20.27;118.99
67358;HTU21D;54240;51.096;5.878;2022-08-01T03:14:52;20.29;118.99
67358;HTU21D;54240;51.096;5.878;2022-08-01T03:17:22;20.32;118.99
67358;HTU21D;54240;51.096;5.878;2022-08-01T03:19:52;20.32;118.99
67358;HTU21D;54240;51.096;5.878;2022-08-01T03:22:18;20.32;118.99
67358;HTU21D;54240;51.096;5.878;2022-08-01T03:24:51;20.33;118.99
67358;HTU21D;54240;51.096;5.878;2022-08-01T03:27:20;20.32;118.99
67358;HTU21D;54240;51.096;5.878;2022-08-01T03:29:47;20.30;118.99
67358;HTU21D;54240;51.096;5.878;2022-08-01T03:32:16;20.25;118.99
67358;HTU21D;54240;51.096;5.878;2022-08-01T03:34:43;20.26;118.99
67358;HTU21D;54240;51.096;5.878;2022-08-01T03:37:23;20.19;118.99
67358;HTU21D;54240;51.096;5.878;2022-08-01T03:39:58;20.20;118.99
67358;HTU21D;54240;51.096;5.878;2022-08-01T03:42:36;20.11;118.99
67358;HTU21D;54240;51.096;5.878;2022-08-01T03:45:08;20.00;118.99
67358;HTU21D;54240;51.096;5.878;2022-08-01T03:47:36;19.92;118.99
67358;HTU21D;54240;51.096;5.878;2022-08-01T03:50:05;19.71;118.99
67358;HTU21D;54240;51.096;5.878;2022-08-01T03:52:34;19.67;118.99
67358;HTU21D;54240;51.096;5.878;2022-08-01T03:55:05;19.62;118.99
67358;HTU21D;54240;51.096;5.878;2022-08-01T03:57:36;19.55;118.99
67358;HTU21D;54240;51.096;5.878;2022-08-01T04:00:04;19.41;118.99
67358;HTU21D;54240;51.096;5.878;2022-08-01T04:02:41;19.51;118.99
67358;HTU21D;54240;51.096;5.878;2022-08-01T04:05:07;19.53;118.99
67358;HTU21D;54240;51.096;5.878;2022-08-01T04:07:34;19.52;118.99
67358;HTU21D;54240;51.096;5.878;2022-08-01T04:10:05;19.47;118.99
67358;HTU21D;54240;51.096;5.878;2022-08-01T04:12:32;19.40;118.99
67358;HTU21D;54240;51.096;5.878;2022-08-01T04:14:58;19.40;118.99
67358;HTU21D;54240;51.096;5.878;2022-08-01T04:17:24;19.40;118.99
67358;HTU21D;54240;51.096;5.878;2022-08-01T04:19:50;19.41;118.99
67358;HTU21D;54240;51.096;5.878;2022-08-01T04:22:16;19.47;118.99
67358;HTU21D;54240;51.096;5.878;2022-08-01T04:24:47;19.30;118.99
67358;HTU21D;54240;51.096;5.878;2022-08-01T04:27:21;19.18;118.99
67358;HTU21D;54240;51.096;5.878;2022-08-01T04:29:49;18.85;118.99
67358;HTU21D;54240;51.096;5.878;2022-08-01T04:32:20;18.93;118.99
67358;HTU21D;54240;51.096;5.878;2022-08-01T04:34:49;18.98;118.99
67358;HTU21D;54240;51.096;5.878;2022-08-01T04:37:17;19.05;118.99
67358;HTU21D;54240;51.096;5.878;2022-08-01T04:39:46;19.06;118.99
67358;HTU21D;54240;51.096;5.878;2022-08-01T04:42:14;19.11;118.99
67358;HTU21D;54240;51.096;5.878;2022-08-01T04:44:41;19.16;118.99
67358;HTU21D;54240;51.096;5.878;2022-08-01T04:47:08;19.11;118.99
67358;HTU21D;54240;51.096;5.878;2022-08-01T04:49:36;19.12;118.99
67358;HTU21D;54240;51.096;5.878;2022-08-01T04:52:02;19.06;118.99
67358;HTU21D;54240;51.096;5.878;2022-08-01T04:54:30;19.07;118.99
67358;HTU21D;54240;51.096;5.878;2022-08-01T04:57:00;19.01;118.99
67358;HTU21D;54240;51.096;5.878;2022-08-01T04:59:27;19.08;118.99
67358;HTU21D;54240;51.096;5.878;2022-08-01T05:02:26;19.10;118.99
67358;HTU21D;54240;51.096;5.878;2022-08-01T05:04:53;19.15;118.99
67358;HTU21D;54240;51.096;5.878;2022-08-01T05:07:21;19.17;118.99
67358;HTU21D;54240;51.096;5.878;2022-08-01T05:09:47;19.26;118.99
67358;HTU21D;54240;51.096;5.878;2022-08-01T05:12:13;19.26;118.99
67358;HTU21D;54240;51.096;5.878;2022-08-01T05:14:39;19.27;118.99
67358;HTU21D;54240;51.096;5.878;2022-08-01T05:17:07;19.41;118.99
67358;HTU21D;54240;51.096;5.878;2022-08-01T05:19:35;19.51;118.99
67358;HTU21D;54240;51.096;5.878;2022-08-01T05:22:03;19.50;118.99
67358;HTU21D;54240;51.096;5.878;2022-08-01T05:24:34;19.61;118.99
67358;HTU21D;54240;51.096;5.878;2022-08-01T05:27:00;19.68;118.99
67358;HTU21D;54240;51.096;5.878;2022-08-01T05:29:26;19.65;118.99
67358;HTU21D;54240;51.096;5.878;2022-08-01T05:31:53;19.62;118.99
67358;HTU21D;54240;51.096;5.878;2022-08-01T05:34:20;19.70;118.99
67358;HTU21D;54240;51.096;5.878;2022-08-01T05:36:46;19.74;118.99
67358;HTU21D;54240;51.096;5.878;2022-08-01T05:39:13;19.71;118.99
67358;HTU21D;54240;51.096;5.878;2022-08-01T05:41:39;19.76;118.99
67358;HTU21D;54240;51.096;5.878;2022-08-01T05:44:06;19.71;118.99
67358;HTU21D;54240;51.096;5.878;2022-08-01T05:46:33;19.80;118.99
67358;HTU21D;54240;51.096;5.878;2022-08-01T05:49:00;19.91;118.99
67358;HTU21D;54240;51.096;5.878;2022-08-01T05:51:26;20.00;118.99
67358;HTU21D;54240;51.096;5.878;2022-08-01T05:53:53;20.09;118.99
67358;HTU21D;54240;51.096;5.878;2022-08-01T05:56:20;20.14;118.99
67358;HTU21D;54240;51.096;5.878;2022-08-01T05:58:47;20.15;118.99
67358;HTU21D;54240;51.096;5.878;2022-08-01T06:01:13;20.09;118.99
67358;HTU21D;54240;51.096;5.878;2022-08-01T06:03:39;20.12;118.99
67358;HTU21D;54240;51.096;5.878;2022-08-01T06:06:05;20.10;118.99
67358;HTU21D;54240;51.096;5.878;2022-08-01T06:08:32;20.14;118.99
67358;HTU21D;54240;51.096;5.878;2022-08-01T06:10:58;20.21;118.99
67358;HTU21D;54240;51.096;5.878;2022-08-01T06:13:24;20.15;118.99
67358;HTU21D;54240;51.096;5.878;2022-08-01T06:15:50;20.16;118.99
67358;HTU21D;54240;51.096;5.878;2022-08-01T06:18:16;20.09;118.99
67358;HTU21D;54240;51.096;5.878;2022-08-01T06:20:42;20.00;118.99
67358;HTU21D;54240;51.096;5.878;2022-08-01T06:23:09;20.06;118.99
67358;HTU21D;54240;51.096;5.878;2022-08-01T06:25:35;20.25;118.99
67358;HTU21D;54240;51.096;5.878;2022-08-01T06:28:01;20.53;118.99
67358;HTU21D;54240;51.096;5.878;2022-08-01T06:30:27;20.64;118.99
67358;HTU21D;54240;51.096;5.878;2022-08-01T06:32:53;20.75;118.99
67358;HTU21D;54240;51.096;5.878;2022-08-01T06:35:21;20.99;118.99
67358;HTU21D;54240;51.096;5.878;2022-08-01T06:37:47;21.14;118.99
67358;HTU21D;54240;51.096;5.878;2022-08-01T06:40:14;21.20;118.99
67358;HTU21D;54240;51.096;5.878;2022-08-01T06:42:40;21.39;118.99
67358;HTU21D;54240;51.096;5.878;2022-08-01T06:45:11;21.67;118.99
67358;HTU21D;54240;51.096;5.878;2022-08-01T06:47:41;21.76;118.99
67358;HTU21D;54240;51.096;5.878;2022-08-01T06:50:09;21.79;118.99
67358;HTU21D;54240;51.096;5.878;2022-08-01T06:52:36;21.79;118.99
67358;HTU21D;54240;51.096;5.878;2022-08-01T06:55:03;21.78;118.99
67358;HTU21D;54240;51.096;5.878;2022-08-01T06:57:29;21.75;118.99
67358;HTU21D;54240;51.096;5.878;2022-08-01T06:59:55;21.66;118.99
67358;HTU21D;54240;51.096;5.878;2022-08-01T07:02:22;21.59;118.99
67358;HTU21D;54240;51.096;5.878;2022-08-01T07:04:48;21.47;118.99
67358;HTU21D;54240;51.096;5.878;2022-08-01T07:07:14;21.36;118.99
67358;HTU21D;54240;51.096;5.878;2022-08-01T07:09:40;21.44;118.99
67358;HTU21D;54240;51.096;5.878;2022-08-01T07:12:07;21.51;118.99
67358;HTU21D;54240;51.096;5.878;2022-08-01T07:14:33;21.49;118.99
67358;HTU21D;54240;51.096;5.878;2022-08-01T07:16:58;21.34;118.99
67358;HTU21D;54240;51.096;5.878;2022-08-01T07:19:26;21.39;118.99
67358;HTU21D;54240;51.096;5.878;2022-08-01T07:21:52;21.35;118.99
67358;HTU21D;54240;51.096;5.878;2022-08-01T07:24:18;21.23;118.99
67358;HTU21D;54240;51.096;5.878;2022-08-01T07:26:46;21.16;118.99
67358;HTU21D;54240;51.096;5.878;2022-08-01T07:29:13;21.03;118.99
67358;HTU21D;54240;51.096;5.878;2022-08-01T07:31:39;21.04;118.99
67358;HTU21D;54240;51.096;5.878;2022-08-01T07:34:05;21.15;118.99
67358;HTU21D;54240;51.096;5.878;2022-08-01T07:36:31;21.35;118.99
67358;HTU21D;54240;51.096;5.878;2022-08-01T07:38:56;21.40;118.99
67358;HTU21D;54240;51.096;5.878;2022-08-01T07:41:23;21.40;118.99
67358;HTU21D;54240;51.096;5.878;2022-08-01T07:43:49;21.45;118.99
67358;HTU21D;54240;51.096;5.878;2022-08-01T07:46:15;21.47;118.99
67358;HTU21D;54240;51.096;5.878;2022-08-01T07:48:42;21.43;118.99
67358;HTU21D;54240;51.096;5.878;2022-08-01T07:51:08;21.31;118.99
67358;HTU21D;54240;51.096;5.878;2022-08-01T07:53:36;21.40;118.99
67358;HTU21D;54240;51.096;5.878;2022-08-01T07:56:03;21.47;118.99
67358;HTU21D;54240;51.096;5.878;2022-08-01T07:58:32;21.48;118.99
67358;HTU21D;54240;51.096;5.878;2022-08-01T08:00:58;21.55;118.99
67358;HTU21D;54240;51.096;5.878;2022-08-01T08:03:24;21.62;118.99
67358;HTU21D;54240;51.096;5.878;2022-08-01T08:05:50;21.73;118.99
67358;HTU21D;54240;51.096;5.878;2022-08-01T08:08:15;21.96;118.99
67358;HTU21D;54240;51.096;5.878;2022-08-01T08:10:44;22.22;118.99
67358;HTU21D;54240;51.096;5.878;2022-08-01T08:13:10;22.42;118.99
67358;HTU21D;54240;51.096;5.878;2022-08-01T08:15:36;22.52;118.99
67358;HTU21D;54240;51.096;5.878;2022-08-01T08:18:05;22.44;118.99
67358;HTU21D;54240;51.096;5.878;2022-08-01T08:20:31;22.47;118.99
67358;HTU21D;54240;51.096;5.878;2022-08-01T08:22:57;22.61;118.99
67358;HTU21D;54240;51.096;5.878;2022-08-01T08:25:26;22.50;118.99
67358;HTU21D;54240;51.096;5.878;2022-08-01T08:27:53;22.41;118.99
67358;HTU21D;54240;51.096;5.878;2022-08-01T08:30:18;22.50;118.99
67358;HTU21D;54240;51.096;5.878;2022-08-01T08:32:44;22.73;118.99
67358;HTU21D;54240;51.096;5.878;2022-08-01T08:35:10;23.06;118.99
67358;HTU21D;54240;51.096;5.878;2022-08-01T08:37:37;23.21;118.99
67358;HTU21D;54240;51.096;5.878;2022-08-01T08:40:05;23.29;118.99
67358;HTU21D;54240;51.096;5.878;2022-08-01T08:42:31;23.43;118.99
67358;HTU21D;54240;51.096;5.878;2022-08-01T08:44:57;23.65;118.99
67358;HTU21D;54240;51.096;5.878;2022-08-01T08:47:25;24.35;118.99
67358;HTU21D;54240;51.096;5.878;2022-08-01T08:49:53;24.93;118.99
67358;HTU21D;54240;51.096;5.878;2022-08-01T08:52:20;25.65;118.99
67358;HTU21D;54240;51.096;5.878;2022-08-01T08:54:49;26.50;118.99
67358;HTU21D;54240;51.096;5.878;2022-08-01T08:57:15;26.69;118.99
67358;HTU21D;54240;51.096;5.878;2022-08-01T08:59:44;26.61;118.99
67358;HTU21D;54240;51.096;5.878;2022-08-01T09:02:11;26.78;118.99
67358;HTU21D;54240;51.096;5.878;2022-08-01T09:04:37;26.60;118.99
67358;HTU21D;54240;51.096;5.878;2022-08-01T09:07:07;26.84;118.99
67358;HTU21D;54240;51.096;5.878;2022-08-01T09:09:34;26.96;118.99
67358;HTU21D;54240;51.096;5.878;2022-08-01T09:12:00;27.02;118.99
67358;HTU21D;54240;51.096;5.878;2022-08-01T09:14:26;27.75;118.99
67358;HTU21D;54240;51.096;5.878;2022-08-01T09:17:03;28.69;40.42
67358;HTU21D;54240;51.096;5.878;2022-08-01T09:19:37;28.92;12.45
67358;HTU21D;54240;51.096;5.878;2022-08-01T09:22:10;29.04;-2.85
67358;HTU21D;54240;51.096;5.878;2022-08-01T09:24:37;29.62;-6.00
67358;HTU21D;54240;51.096;5.878;2022-08-01T09:27:20;29.85;-6.00
67358;HTU21D;54240;51.096;5.878;2022-08-01T09:29:46;29.05;-6.00
67358;HTU21D;54240;51.096;5.878;2022-08-01T09:32:12;29.05;-6.00
67358;HTU21D;54240;51.096;5.878;2022-08-01T09:34:38;29.20;-6.00
67358;HTU21D;54240;51.096;5.878;2022-08-01T09:37:04;29.54;-6.00
67358;HTU21D;54240;51.096;5.878;2022-08-01T09:39:33;29.77;-6.00
67358;HTU21D;54240;51.096;5.878;2022-08-01T09:42:25;30.07;-6.00
67358;HTU21D;54240;51.096;5.878;2022-08-01T09:44:52;30.42;-6.00
67358;HTU21D;54240;51.096;5.878;2022-08-01T09:47:19;30.21;-6.00
67358;HTU21D;54240;51.096;5.878;2022-08-01T09:49:56;30.08;-6.00
67358;HTU21D;54240;51.096;5.878;2022-08-01T09:52:25;30.26;-6.00
67358;HTU21D;54240;51.096;5.878;2022-08-01T09:54:57;30.25;-6.00
67358;HTU21D;54240;51.096;5.878;2022-08-01T09:57:24;30.37;-6.00
67358;HTU21D;54240;51.096;5.878;2022-08-01T09:59:53;30.19;-6.00
67358;HTU21D;54240;51.096;5.878;2022-08-01T10:02:37;29.97;-6.00
67358;HTU21D;54240;51.096;5.878;2022-08-01T10:05:07;30.01;-6.00
67358;HTU21D;54240;51.096;5.878;2022-08-01T10:07:34;29.52;-6.00
67358;HTU21D;54240;51.096;5.878;2022-08-01T10:10:11;28.99;-6.00
67358;HTU21D;54240;51.096;5.878;2022-08-01T10:12:40;28.55;-6.00
67358;HTU21D;54240;51.096;5.878;2022-08-01T10:15:07;27.26;-6.00
67358;HTU21D;54240;51.096;5.878;2022-08-01T10:17:34;27.24;-6.00
67358;HTU21D;54240;51.096;5.878;2022-08-01T10:20:02;27.71;-6.00
67358;HTU21D;54240;51.096;5.878;2022-08-01T10:22:30;28.63;-6.00
67358;HTU21D;54240;51.096;5.878;2022-08-01T10:24:57;29.38;-6.00
67358;HTU21D;54240;51.096;5.878;2022-08-01T10:27:26;29.73;-6.00
67358;HTU21D;54240;51.096;5.878;2022-08-01T10:29:57;29.72;-6.00
67358;HTU21D;54240;51.096;5.878;2022-08-01T10:32:26;30.17;-6.00
67358;HTU21D;54240;51.096;5.878;2022-08-01T10:34:55;30.50;-6.00
67358;HTU21D;54240;51.096;5.878;2022-08-01T10:37:22;30.65;-6.00
67358;HTU21D;54240;51.096;5.878;2022-08-01T10:39:51;30.76;-6.00
67358;HTU21D;54240;51.096;5.878;2022-08-01T10:42:18;31.22;-6.00
67358;HTU21D;54240;51.096;5.878;2022-08-01T10:44:45;31.04;-6.00
67358;HTU21D;54240;51.096;5.878;2022-08-01T10:47:17;30.92;-6.00
67358;HTU21D;54240;51.096;5.878;2022-08-01T10:49:48;30.15;-6.00
67358;HTU21D;54240;51.096;5.878;2022-08-01T10:52:17;29.95;-6.00
67358;HTU21D;54240;51.096;5.878;2022-08-01T10:54:44;29.62;-6.00
67358;HTU21D;54240;51.096;5.878;2022-08-01T10:57:10;30.11;-6.00
67358;HTU21D;54240;51.096;5.878;2022-08-01T10:59:51;30.10;-6.00
67358;HTU21D;54240;51.096;5.878;2022-08-01T11:02:30;29.33;-6.00
67358;HTU21D;54240;51.096;5.878;2022-08-01T11:05:20;29.03;-6.00
67358;HTU21D;54240;51.096;5.878;2022-08-01T11:07:54;28.97;-6.00
67358;HTU21D;54240;51.096;5.878;2022-08-01T11:10:37;29.53;-6.00
67358;HTU21D;54240;51.096;5.878;2022-08-01T11:13:04;29.53;-6.00
67358;HTU21D;54240;51.096;5.878;2022-08-01T11:15:34;30.07;-6.00
67358;HTU21D;54240;51.096;5.878;2022-08-01T11:18:02;30.63;-6.00
67358;HTU21D;54240;51.096;5.878;2022-08-01T11:20:31;30.85;-6.00
67358;HTU21D;54240;51.096;5.878;2022-08-01T11:33:11;30.77;-6.00
67358;HTU21D;54240;51.096;5.878;2022-08-01T11:38:41;31.65;-6.00
67358;HTU21D;54240;51.096;5.878;2022-08-01T11:44:04;31.96;-6.00
67358;HTU21D;54240;51.096;5.878;2022-08-01T11:52:06;30.86;-6.00
67358;HTU21D;54240;51.096;5.878;2022-08-01T11:54:35;29.86;-6.00
67358;HTU21D;54240;51.096;5.878;2022-08-01T11:57:07;29.82;-6.00
67358;HTU21D;54240;51.096;5.878;2022-08-01T11:59:44;30.08;-6.00
67358;HTU21D;54240;51.096;5.878;2022-08-01T12:02:20;30.44;-6.00
67358;HTU21D;54240;51.096;5.878;2022-08-01T12:07:13;30.20;-6.00
67358;HTU21D;54240;51.096;5.878;2022-08-01T12:09:39;29.92;-6.00
67358;HTU21D;54240;51.096;5.878;2022-08-01T12:12:06;29.89;-6.00
67358;HTU21D;54240;51.096;5.878;2022-08-01T12:14:32;28.86;-6.00
67358;HTU21D;54240;51.096;5.878;2022-08-01T12:16:58;28.72;-6.00
67358;HTU21D;54240;51.096;5.878;2022-08-01T12:19:24;28.31;-6.00
67358;HTU21D;54240;51.096;5.878;2022-08-01T12:22:12;28.40;-6.00
67358;HTU21D;54240;51.096;5.878;2022-08-01T12:24:41;28.61;-6.00
67358;HTU21D;54240;51.096;5.878;2022-08-01T12:27:09;28.67;-6.00
67358;HTU21D;54240;51.096;5.878;2022-08-01T12:32:04;28.50;-6.00
67358;HTU21D;54240;51.096;5.878;2022-08-01T12:34:31;29.15;-6.00
67358;HTU21D;54240;51.096;5.878;2022-08-01T12:37:01;29.19;-6.00
67358;HTU21D;54240;51.096;5.878;2022-08-01T12:39:34;29.09;-6.00
67358;HTU21D;54240;51.096;5.878;2022-08-01T12:42:01;28.78;-6.00
67358;HTU21D;54240;51.096;5.878;2022-08-01T12:44:30;28.54;-6.00
67358;HTU21D;54240;51.096;5.878;2022-08-01T12:46:57;28.62;-6.00
67358;HTU21D;54240;51.096;5.878;2022-08-01T12:49:23;28.67;-6.00
67358;HTU21D;54240;51.096;5.878;2022-08-01T12:51:50;28.69;-6.00
67358;HTU21D;54240;51.096;5.878;2022-08-01T12:54:16;28.09;-6.00
67358;HTU21D;54240;51.096;5.878;2022-08-01T12:56:43;27.76;-6.00
67358;HTU21D;54240;51.096;5.878;2022-08-01T12:59:22;27.96;-6.00
67358;HTU21D;54240;51.096;5.878;2022-08-01T13:01:54;27.84;-6.00
67358;HTU21D;54240;51.096;5.878;2022-08-01T13:04:21;27.68;-6.00
67358;HTU21D;54240;51.096;5.878;2022-08-01T13:06:52;27.64;-6.00
67358;HTU21D;54240;51.096;5.878;2022-08-01T13:09:19;27.50;-6.00
67358;HTU21D;54240;51.096;5.878;2022-08-01T13:11:45;26.96;-6.00
67358;HTU21D;54240;51.096;5.878;2022-08-01T13:14:29;26.58;-6.00
67358;HTU21D;54240;51.096;5.878;2022-08-01T13:16:55;26.11;-6.00
67358;HTU21D;54240;51.096;5.878;2022-08-01T13:19:27;26.20;17.61
67358;HTU21D;54240;51.096;5.878;2022-08-01T13:22:06;25.93;64.79
67358;HTU21D;54240;51.096;5.878;2022-08-01T13:24:32;25.56;85.70
67358;HTU21D;54240;51.096;5.878;2022-08-01T13:27:00;25.46;83.51
67358;HTU21D;54240;51.096;5.878;2022-08-01T13:29:33;25.46;81.75
67358;HTU21D;54240;51.096;5.878;2022-08-01T13:32:20;25.61;74.64
67358;HTU21D;54240;51.096;5.878;2022-08-01T13:34:47;25.73;44.09
67358;HTU21D;54240;51.096;5.878;2022-08-01T13:37:13;25.80;51.14
67358;HTU21D;54240;51.096;5.878;2022-08-01T13:39:43;25.93;41.73
67358;HTU21D;54240;51.096;5.878;2022-08-01T13:42:11;26.09;13.42
67358;HTU21D;54240;51.096;5.878;2022-08-01T13:44:37;26.13;-6.00
67358;HTU21D;54240;51.096;5.878;2022-08-01T13:47:04;26.10;5.01
67358;HTU21D;54240;51.096;5.878;2022-08-01T13:49:30;26.03;18.84
67358;HTU21D;54240;51.096;5.878;2022-08-01T13:51:57;26.12;6.66
67358;HTU21D;54240;51.096;5.878;2022-08-01T13:54:23;25.99;45.22
67358;HTU21D;54240;51.096;5.878;2022-08-01T13:56:50;25.81;40.30
67358;HTU21D;54240;51.096;5.878;2022-08-01T13:59:17;25.79;25.30
67358;HTU21D;54240;51.096;5.878;2022-08-01T14:01:43;26.01;16.92
67358;HTU21D;54240;51.096;5.878;2022-08-01T14:04:09;25.68;43.36
67358;HTU21D;54240;51.096;5.878;2022-08-01T14:06:35;25.97;18.19
67358;HTU21D;54240;51.096;5.878;2022-08-01T14:09:02;26.11;13.66
67358;HTU21D;54240;51.096;5.878;2022-08-01T14:11:28;26.05;-6.00
67358;HTU21D;54240;51.096;5.878;2022-08-01T14:13:54;25.77;-3.98
67358;HTU21D;54240;51.096;5.878;2022-08-01T14:16:20;25.87;4.93
67358;HTU21D;54240;51.096;5.878;2022-08-01T14:18:46;26.32;-6.00
67358;HTU21D;54240;51.096;5.878;2022-08-01T14:21:12;26.55;-6.00
67358;HTU21D;54240;51.096;5.878;2022-08-01T14:23:40;26.64;-6.00
67358;HTU21D;54240;51.096;5.878;2022-08-01T14:26:09;26.46;-6.00
67358;HTU21D;54240;51.096;5.878;2022-08-01T14:28:39;26.37;-6.00
67358;HTU21D;54240;51.096;5.878;2022-08-01T14:31:05;26.23;-6.00
67358;HTU21D;54240;51.096;5.878;2022-08-01T14:33:34;26.17;-6.00
67358;HTU21D;54240;51.096;5.878;2022-08-01T14:36:00;26.22;-6.00
67358;HTU21D;54240;51.096;5.878;2022-08-01T14:38:26;26.18;-6.00
67358;HTU21D;54240;51.096;5.878;2022-08-01T14:40:52;26.35;-6.00
67358;HTU21D;54240;51.096;5.878;2022-08-01T14:43:19;26.48;-6.00
67358;HTU21D;54240;51.096;5.878;2022-08-01T14:45:46;26.41;-6.00
67358;HTU21D;54240;51.096;5.878;2022-08-01T14:48:18;26.56;-6.00
67358;HTU21D;54240;51.096;5.878;2022-08-01T14:50:44;26.89;-6.00
67358;HTU21D;54240;51.096;5.878;2022-08-01T14:53:10;26.79;-6.00
67358;HTU21D;54240;51.096;5.878;2022-08-01T14:55:36;26.64;-6.00
67358;HTU21D;54240;51.096;5.878;2022-08-01T14:58:02;26.58;-6.00
67358;HTU21D;54240;51.096;5.878;2022-08-01T15:00:28;26.75;-6.00
67358;HTU21D;54240;51.096;5.878;2022-08-01T15:02:54;27.07;-6.00
67358;HTU21D;54240;51.096;5.878;2022-08-01T15:05:20;27.35;-6.00
67358;HTU21D;54240;51.096;5.878;2022-08-01T15:07:47;27.80;-6.00
67358;HTU21D;54240;51.096;5.878;2022-08-01T15:10:12;27.94;-6.00
67358;HTU21D;54240;51.096;5.878;2022-08-01T15:12:41;28.18;-6.00
67358;HTU21D;54240;51.096;5.878;2022-08-01T15:15:09;28.37;-6.00
67358;HTU21D;54240;51.096;5.878;2022-08-01T15:17:37;28.40;-6.00
67358;HTU21D;54240;51.096;5.878;2022-08-01T15:20:06;27.99;-6.00
67358;HTU21D;54240;51.096;5.878;2022-08-01T15:22:36;27.76;-6.00
67358;HTU21D;54240;51.096;5.878;2022-08-01T15:25:03;27.70;-6.00
67358;HTU21D;54240;51.096;5.878;2022-08-01T15:27:29;27.85;-6.00
67358;HTU21D;54240;51.096;5.878;2022-08-01T15:29:56;27.61;-6.00
67358;HTU21D;54240;51.096;5.878;2022-08-01T15:32:22;27.43;-6.00
67358;HTU21D;54240;51.096;5.878;2022-08-01T15:34:48;27.07;-6.00
67358;HTU21D;54240;51.096;5.878;2022-08-01T15:37:14;27.08;-6.00
67358;HTU21D;54240;51.096;5.878;2022-08-01T15:39:41;27.00;-6.00
67358;HTU21D;54240;51.096;5.878;2022-08-01T15:42:12;26.86;-6.00
67358;HTU21D;54240;51.096;5.878;2022-08-01T15:44:39;26.77;-6.00
67358;HTU21D;54240;51.096;5.878;2022-08-01T15:47:05;26.20;-6.00
67358;HTU21D;54240;51.096;5.878;2022-08-01T15:49:32;26.09;-6.00
67358;HTU21D;54240;51.096;5.878;2022-08-01T15:51:58;26.08;-6.00
67358;HTU21D;54240;51.096;5.878;2022-08-01T15:54:24;25.89;-6.00
67358;HTU21D;54240;51.096;5.878;2022-08-01T15:56:50;25.78;-6.00
67358;HTU21D;54240;51.096;5.878;2022-08-01T15:59:16;25.54;-6.00
67358;HTU21D;54240;51.096;5.878;2022-08-01T16:01:42;25.37;-6.00
67358;HTU21D;54240;51.096;5.878;2022-08-01T16:04:08;25.51;-6.00